KNJK/NJK METAR and TAF weather

Enter ICAO airport designator
Station Type Date Time Source
KNJK METAR 2019/08/20 08:56 UTC NOAA

KNJK 200856Z AUTO 31007KT 10SM CLR 29/M03 A2976 RMK AO2 SLP094 T02891028 53000


Station Type Date Time Source
KNJK Decoded METAR 2019/08/20 08:56 UTC NOAA

El Centro, Naval Air Facility, CA, United States (KNJK) 32-49-30N 115-39-38W -13M
Aug 20, 2019 - 04:56 AM EDT / 2019.08.20 0856 UTC
Wind: from the NW (310 degrees) at 8 MPH (7 KT):0
Visibility: 10 mile(s):0
Sky conditions: clear
Temperature: 84.0 F (28.9 C)
Dew Point: 27.0 F (-2.8 C)
Relative Humidity: 12%
Pressure (altimeter): 29.76 in. Hg (1007 hPa)
Pressure tendency: 0.00 inches (0.0 hPa) higher than three hours ago
ob: KNJK 200856Z AUTO 31007KT 10SM CLR 29/M03 A2976 RMK AO2 SLP094 T02891028 53000
cycle: 9

Station Type Date Time Source
KNJK TAF 2019/08/20 07:03 UTC NOAA

TAF KNJK 2007/2107 29008KT 9999 SKC QNH2971INS
FM201700 33008KT 9999 FEW200 QNH2980INS AUTOMATED SENSOR METWATCH 2007 TIL 2013 T24/2013Z T45/2023Z FS30144

Example: see airport list